Pathein, Burma
Current Conditions -  °F | °C
As of 10:30 PM on Saturday 25 Oct 2014 (Local Time) from VYYY Reporting Station
Clear Clear  
Wind Chill: 27°   Ceiling: Unl
Heat Index: 31°   Visibility: 4mi
Dew Point: 26°   Wind: 3mph
Humidity: 94%   Direction: 270°W
Pressure: 29.88"   Gusts: NA
Location:  16.78°N, 94.73°E
Report Text: VYYY 251630Z 27003KT 7000 NSC 27/26 Q1012 NOSIG
Loading
Personal Weather Stations






























Interactive Weather Map New forecast layout! Learn more

10-Day Weather Forecast

Advertisements
Track Severe Weather on mobile